createdAt,value
2022-08-09T06:21:33.017Z,102726.59
2022-08-09T06:25:34.539Z,102717.50
2022-08-09T06:29:00.230Z,102724.16
2022-08-09T06:39:59.776Z,102729.78
2022-08-09T06:43:34.572Z,102736.06
2022-08-09T06:46:48.225Z,102730.75
2022-08-09T06:50:13.720Z,102744.66
2022-08-09T06:53:38.429Z,102735.84
2022-08-09T07:01:53.886Z,102736.34
2022-08-09T07:24:00.983Z,102737.91
2022-08-09T07:32:24.151Z,102732.00
2022-08-09T07:54:01.632Z,102742.06
2022-08-09T08:19:55.493Z,102746.91
2022-08-09T08:41:13.039Z,102755.69
2022-08-09T09:23:02.023Z,102759.31
2022-08-09T09:26:15.749Z,102754.53
2022-08-09T09:30:14.236Z,102753.44
2022-08-09T09:47:10.043Z,102762.91
2022-08-09T10:17:55.883Z,102760.16
2022-08-09T11:00:07.540Z,102727.25
2022-08-09T17:08:40.509Z,102627.59
2022-08-09T17:19:21.965Z,102633.22
2022-08-09T17:32:37.929Z,102645.38
2022-08-09T17:40:33.395Z,102640.94
2022-08-09T17:44:38.408Z,102645.31
2022-08-09T18:05:17.068Z,102659.56
2022-08-09T18:09:22.842Z,102661.75
2022-08-09T18:24:32.134Z,102678.91
2022-08-09T18:28:03.316Z,102668.78
2022-08-09T18:31:06.973Z,102670.94
2022-08-09T18:34:20.295Z,102674.78
2022-08-09T18:37:57.162Z,102667.09
2022-08-09T18:45:21.585Z,102677.56
2022-08-09T18:48:49.342Z,102682.31
2022-08-09T18:52:35.076Z,102676.41
2022-08-09T19:10:46.089Z,102665.81
2022-08-09T19:31:25.452Z,102676.84
2022-08-09T20:05:19.393Z,102720.19
2022-08-09T20:13:40.262Z,102736.00
2022-08-09T20:16:56.919Z,102732.66
2022-08-09T20:20:05.228Z,102730.13
2022-08-09T20:23:39.400Z,102731.03
2022-08-09T20:26:55.284Z,102734.66
2022-08-09T20:30:28.201Z,102735.94
2022-08-09T20:33:52.403Z,102736.88
2022-08-09T20:37:17.041Z,102732.59
2022-08-09T20:40:43.992Z,102732.72
2022-08-09T20:47:45.764Z,102729.66
2022-08-09T20:51:16.711Z,102728.16
2022-08-09T20:54:29.030Z,102726.44
2022-08-09T20:58:08.533Z,102730.09
2022-08-09T21:01:32.269Z,102725.72
2022-08-09T21:05:52.521Z,102732.97
2022-08-09T21:08:40.854Z,102730.56
2022-08-09T21:15:34.161Z,102734.09
2022-08-09T21:19:01.821Z,102742.75
2022-08-09T21:22:36.214Z,102739.44
2022-08-09T21:26:06.017Z,102738.78
2022-08-09T21:29:22.725Z,102742.34
2022-08-09T21:32:35.555Z,102751.19
2022-08-09T21:35:52.604Z,102753.97
2022-08-09T21:39:07.743Z,102751.34
2022-08-09T21:42:38.120Z,102749.66
2022-08-09T21:50:03.995Z,102748.09
2022-08-09T21:57:38.641Z,102751.75
2022-08-09T22:13:31.449Z,102744.19
2022-08-09T22:20:31.197Z,102746.84
2022-08-09T22:23:59.084Z,102739.97
2022-08-09T22:27:06.757Z,102741.78
2022-08-09T22:30:26.104Z,102745.25
2022-08-09T22:33:49.190Z,102746.16
2022-08-09T22:37:13.644Z,102740.97
2022-08-09T22:40:20.111Z,102739.28
2022-08-09T22:44:01.873Z,102734.97
2022-08-09T22:48:18.808Z,102735.00
2022-08-09T22:50:27.351Z,102742.06
2022-08-09T22:53:44.332Z,102744.69
2022-08-09T22:57:12.162Z,102737.78
2022-08-09T23:00:14.694Z,102740.41
2022-08-09T23:04:04.686Z,102733.47
2022-08-09T23:07:11.340Z,102730.00
2022-08-09T23:10:21.364Z,102728.28
2022-08-09T23:13:22.563Z,102723.06
2022-08-09T23:16:31.572Z,102717.84
2022-08-09T23:20:01.064Z,102724.88
2022-08-09T23:23:23.090Z,102721.44
2022-08-09T23:26:31.825Z,102719.66
2022-08-09T23:29:46.728Z,102717.13
2022-08-09T23:32:47.491Z,102728.44
2022-08-09T23:36:04.887Z,102724.97
2022-08-09T23:39:09.267Z,102731.03
2022-08-09T23:42:18.215Z,102734.56
2022-08-09T23:45:37.804Z,102744.97
2022-08-09T23:48:47.722Z,102745.91
2022-08-09T23:51:50.376Z,102744.16
2022-08-09T23:55:06.046Z,102747.66
2022-08-09T23:58:26.182Z,102744.19
